createdAt,value
2018-09-14T00:02:24.095Z,15.10
2018-09-14T00:04:52.572Z,15.10
2018-09-14T00:07:21.059Z,15.10
2018-09-14T00:09:49.525Z,15.00
2018-09-14T00:12:17.966Z,15.10
2018-09-14T00:14:46.433Z,15.00
2018-09-14T00:17:14.864Z,15.00
2018-09-14T00:19:43.332Z,15.00
2018-09-14T00:22:11.827Z,15.00
2018-09-14T00:24:40.241Z,14.90
2018-09-14T00:27:08.655Z,14.90
2018-09-14T00:29:37.045Z,14.90
2018-09-14T00:32:05.439Z,14.90
2018-09-14T00:34:33.845Z,14.90
2018-09-14T00:37:02.367Z,14.90
2018-09-14T00:39:30.762Z,14.90
2018-09-14T00:41:59.186Z,14.90
2018-09-14T00:44:27.600Z,14.90
2018-09-14T00:46:56.025Z,14.90
2018-09-14T00:49:24.392Z,15.00
2018-09-14T00:51:52.838Z,14.90
2018-09-14T00:54:21.237Z,14.90
2018-09-14T00:56:49.655Z,14.90
2018-09-14T00:59:18.050Z,14.80
2018-09-14T01:01:46.541Z,14.80
2018-09-14T01:04:14.912Z,14.80
2018-09-14T01:06:43.299Z,14.80
2018-09-14T01:09:17.105Z,14.80
2018-09-14T01:11:45.586Z,14.90
2018-09-14T01:14:14.073Z,14.90
2018-09-14T01:16:42.748Z,14.90
2018-09-14T01:19:11.161Z,14.90
2018-09-14T01:21:39.506Z,15.00
2018-09-14T01:24:08.041Z,15.00
2018-09-14T01:26:36.554Z,14.90
2018-09-14T01:29:05.061Z,14.90
2018-09-14T01:31:33.484Z,14.90
2018-09-14T01:34:01.866Z,14.90
2018-09-14T01:36:30.256Z,14.80
2018-09-14T01:38:58.681Z,14.80
2018-09-14T01:41:27.112Z,14.80
2018-09-14T01:43:55.529Z,14.80
2018-09-14T01:46:23.940Z,14.90
2018-09-14T01:48:52.436Z,14.80
2018-09-14T01:51:20.811Z,14.70
2018-09-14T01:53:49.221Z,14.70
2018-09-14T01:56:17.625Z,14.70
2018-09-14T01:58:46.064Z,14.70
2018-09-14T02:01:14.474Z,14.70
2018-09-14T02:03:43.866Z,14.60
2018-09-14T02:06:12.253Z,14.60
2018-09-14T02:08:40.703Z,14.60
2018-09-14T02:11:09.085Z,14.60
2018-09-14T02:13:37.491Z,14.50
2018-09-14T02:16:05.844Z,14.50
2018-09-14T02:18:34.295Z,14.50
2018-09-14T02:21:02.861Z,14.50
2018-09-14T02:23:31.360Z,14.50
2018-09-14T02:26:01.258Z,14.50
2018-09-14T02:28:29.667Z,14.50
2018-09-14T02:30:58.095Z,14.50
2018-09-14T02:33:26.632Z,14.40
2018-09-14T02:35:55.106Z,14.50
2018-09-14T02:38:23.570Z,14.40
2018-09-14T02:40:52.018Z,14.50
2018-09-14T02:43:20.405Z,14.50
2018-09-14T02:45:49.058Z,14.40
2018-09-14T02:48:17.494Z,14.40
2018-09-14T02:50:45.897Z,14.40
2018-09-14T02:53:14.811Z,14.40
2018-09-14T02:55:43.261Z,14.50
2018-09-14T02:58:11.752Z,14.50
2018-09-14T03:00:40.179Z,14.40
2018-09-14T03:03:08.574Z,14.40
2018-09-14T03:05:36.965Z,14.40
2018-09-14T03:08:05.348Z,14.40
2018-09-14T03:10:33.700Z,14.40
2018-09-14T03:13:02.107Z,14.40
2018-09-14T03:15:30.505Z,14.40
2018-09-14T03:17:58.953Z,14.50
2018-09-14T03:20:27.369Z,14.50
2018-09-14T03:22:55.749Z,14.40
2018-09-14T03:25:24.181Z,14.40
2018-09-14T03:27:52.570Z,14.40
2018-09-14T03:30:21.060Z,14.30
2018-09-14T03:32:49.515Z,14.30
2018-09-14T03:35:18.021Z,14.20
2018-09-14T03:37:46.520Z,14.10
2018-09-14T03:40:14.957Z,14.00
2018-09-14T03:42:43.363Z,14.00
2018-09-14T03:45:11.824Z,14.00
2018-09-14T03:47:40.202Z,14.00
2018-09-14T03:50:08.618Z,14.10
2018-09-14T03:52:37.120Z,14.10
2018-09-14T03:55:05.589Z,14.10
2018-09-14T03:57:33.999Z,14.20
2018-09-14T04:00:02.459Z,14.20
2018-09-14T04:02:30.940Z,14.20
2018-09-14T04:04:59.410Z,14.10
2018-09-14T04:07:27.815Z,14.20
2018-09-14T04:09:56.207Z,14.00
2018-09-14T04:12:24.566Z,13.90
2018-09-14T04:14:52.972Z,13.90
2018-09-14T04:17:21.333Z,13.90
2018-09-14T04:19:49.867Z,13.80
2018-09-14T04:22:18.292Z,13.80
2018-09-14T04:24:46.659Z,13.90
2018-09-14T04:27:15.076Z,13.90
2018-09-14T04:29:43.491Z,13.90
2018-09-14T04:32:11.871Z,14.00
2018-09-14T04:34:40.399Z,13.90
2018-09-14T04:37:08.975Z,13.90
2018-09-14T04:39:37.405Z,13.90
2018-09-14T04:42:05.868Z,13.90
2018-09-14T04:44:34.296Z,13.90
2018-09-14T04:47:02.832Z,14.00
2018-09-14T04:49:31.204Z,14.00
2018-09-14T04:51:59.622Z,14.00
2018-09-14T04:54:28.043Z,14.00
2018-09-14T04:56:56.525Z,14.00
2018-09-14T04:59:25.153Z,14.10
2018-09-14T05:01:53.603Z,14.10
2018-09-14T05:04:22.076Z,14.00
2018-09-14T05:06:50.541Z,14.00
2018-09-14T05:09:18.959Z,14.00
2018-09-14T05:11:47.337Z,14.00
2018-09-14T05:14:15.827Z,14.00
2018-09-14T05:16:44.283Z,14.10
2018-09-14T05:19:12.708Z,14.10
2018-09-14T05:21:41.316Z,14.10
2018-09-14T05:24:09.755Z,14.10
2018-09-14T05:26:38.212Z,14.20
2018-09-14T05:29:06.609Z,14.20
2018-09-14T05:31:35.040Z,14.30
2018-09-14T05:34:03.404Z,14.30
2018-09-14T05:36:31.824Z,14.30
2018-09-14T05:39:00.224Z,14.40
2018-09-14T05:41:28.692Z,14.40
2018-09-14T05:43:57.120Z,14.50
2018-09-14T05:46:25.549Z,14.40
2018-09-14T05:48:54.256Z,14.50
2018-09-14T05:51:22.689Z,14.50
2018-09-14T05:53:51.177Z,14.50
2018-09-14T05:56:19.654Z,14.60
2018-09-14T05:58:48.217Z,14.60
2018-09-14T06:01:16.683Z,14.70
2018-09-14T06:03:45.061Z,14.70
2018-09-14T06:06:13.539Z,14.70
2018-09-14T06:08:42.096Z,14.70
2018-09-14T06:11:10.514Z,14.70
2018-09-14T06:13:39.004Z,14.70
2018-09-14T06:16:07.505Z,14.80
2018-09-14T06:18:35.944Z,14.90
2018-09-14T06:21:04.366Z,15.00
2018-09-14T06:23:32.843Z,15.00
2018-09-14T06:26:01.297Z,15.00
2018-09-14T06:28:29.749Z,15.00
2018-09-14T06:30:58.249Z,15.10
2018-09-14T06:33:26.682Z,15.00
2018-09-14T06:35:55.148Z,15.10
2018-09-14T06:38:23.632Z,15.10
2018-09-14T06:40:52.203Z,15.10
2018-09-14T06:43:20.635Z,15.10
2018-09-14T06:45:49.030Z,15.20
2018-09-14T06:48:17.431Z,15.20
2018-09-14T06:50:45.867Z,15.30
2018-09-14T06:53:15.551Z,15.30
2018-09-14T06:55:44.083Z,15.30
2018-09-14T06:58:12.511Z,15.30
2018-09-14T07:00:40.998Z,15.40
2018-09-14T07:03:09.526Z,15.40
2018-09-14T07:05:37.988Z,15.40
2018-09-14T07:08:06.442Z,15.40
2018-09-14T07:10:34.946Z,15.50
2018-09-14T07:13:03.618Z,15.40
2018-09-14T07:15:32.109Z,15.60
2018-09-14T07:18:00.507Z,15.70
2018-09-14T07:20:28.958Z,15.80
2018-09-14T07:22:57.386Z,15.90
2018-09-14T07:25:25.792Z,16.00
2018-09-14T07:27:54.289Z,16.10
2018-09-14T07:30:22.796Z,16.30
2018-09-14T07:32:51.186Z,16.30
2018-09-14T07:35:20.371Z,16.50
2018-09-14T07:37:48.833Z,16.60
2018-09-14T07:40:17.352Z,16.60
2018-09-14T07:42:45.867Z,16.70
2018-09-14T07:45:14.309Z,16.80
2018-09-14T07:47:42.721Z,16.90
2018-09-14T07:50:11.197Z,16.90
2018-09-14T07:52:39.604Z,17.10
2018-09-14T07:55:08.033Z,17.20
2018-09-14T07:57:36.578Z,17.40
2018-09-14T08:00:05.180Z,17.50
2018-09-14T08:02:33.710Z,17.60
2018-09-14T08:05:02.188Z,17.80
2018-09-14T08:07:30.655Z,17.90
2018-09-14T08:09:59.132Z,18.00
2018-09-14T08:12:27.610Z,18.00
2018-09-14T08:14:56.048Z,18.00
2018-09-14T08:17:24.516Z,18.10
2018-09-14T08:19:52.922Z,18.30
2018-09-14T08:22:21.419Z,18.40
2018-09-14T08:24:49.849Z,18.30
2018-09-14T08:27:18.839Z,18.20
2018-09-14T08:29:47.508Z,18.20
2018-09-14T08:32:16.071Z,18.10
2018-09-14T08:34:44.517Z,18.10
2018-09-14T08:37:12.974Z,18.30
2018-09-14T08:39:41.468Z,18.40
2018-09-14T08:42:10.473Z,18.60
2018-09-14T08:44:39.427Z,18.80
2018-09-14T08:47:07.916Z,18.80
2018-09-14T08:49:36.331Z,19.10
2018-09-14T08:52:04.830Z,19.30
2018-09-14T08:54:33.315Z,19.50
2018-09-14T08:57:01.800Z,19.60
2018-09-14T08:59:30.276Z,19.80
2018-09-14T09:01:58.742Z,20.00
2018-09-14T09:04:27.249Z,20.30
2018-09-14T09:06:55.699Z,20.40
2018-09-14T09:09:24.212Z,20.50
2018-09-14T09:11:52.757Z,20.10
2018-09-14T09:14:21.208Z,20.00
2018-09-14T09:16:49.669Z,20.20
2018-09-14T09:19:18.344Z,20.20
2018-09-14T09:21:46.817Z,20.10
2018-09-14T09:24:15.269Z,20.10
2018-09-14T09:26:43.720Z,20.00
2018-09-14T09:29:12.186Z,20.10
2018-09-14T09:31:40.626Z,20.30
2018-09-14T09:34:09.024Z,20.50
2018-09-14T09:36:37.451Z,20.80
2018-09-14T09:39:09.270Z,21.00
2018-09-14T09:41:37.917Z,21.10
2018-09-14T09:44:06.580Z,21.30
2018-09-14T09:46:34.928Z,21.50
2018-09-14T09:49:03.383Z,21.40
2018-09-14T09:51:31.870Z,21.30
2018-09-14T09:54:00.295Z,21.00
2018-09-14T09:56:28.763Z,21.10
2018-09-14T09:58:57.254Z,21.10
2018-09-14T10:01:33.874Z,21.00
2018-09-14T10:04:08.266Z,21.00
2018-09-14T10:06:36.665Z,20.80
2018-09-14T10:09:08.004Z,20.80
2018-09-14T10:11:36.506Z,20.80
2018-09-14T10:14:05.428Z,20.80
2018-09-14T10:16:33.836Z,20.80
2018-09-14T10:19:02.260Z,20.90
2018-09-14T10:21:30.652Z,20.90
2018-09-14T10:23:59.081Z,20.90
2018-09-14T10:26:27.539Z,21.00
2018-09-14T10:28:55.985Z,21.10
2018-09-14T10:31:24.356Z,21.10
2018-09-14T10:33:52.785Z,21.00
2018-09-14T10:36:21.163Z,20.90
2018-09-14T10:38:49.597Z,20.70
2018-09-14T10:41:17.996Z,20.60
2018-09-14T10:43:46.675Z,20.60
2018-09-14T10:46:15.025Z,20.60
2018-09-14T10:48:43.566Z,20.80
2018-09-14T10:51:11.959Z,20.70
2018-09-14T10:53:40.419Z,20.90
2018-09-14T10:56:08.871Z,21.00
2018-09-14T10:58:42.322Z,21.20
2018-09-14T11:01:12.629Z,21.20
2018-09-14T11:03:41.064Z,21.20
2018-09-14T11:06:09.439Z,21.00
2018-09-14T11:08:37.860Z,20.60
2018-09-14T11:11:06.542Z,20.70
2018-09-14T11:13:35.019Z,20.70
2018-09-14T11:16:03.398Z,20.90
2018-09-14T11:18:31.843Z,20.80
2018-09-14T11:21:00.305Z,20.60
2018-09-14T11:23:28.742Z,20.40
2018-09-14T11:25:57.222Z,20.70
2018-09-14T11:28:25.701Z,20.60
2018-09-14T11:30:54.082Z,20.80
2018-09-14T11:33:22.567Z,20.90
2018-09-14T11:35:51.008Z,21.00
2018-09-14T11:38:19.431Z,21.00
2018-09-14T11:40:47.833Z,21.10
2018-09-14T11:43:16.179Z,21.30
2018-09-14T11:45:44.777Z,21.50
2018-09-14T11:48:13.165Z,21.70
2018-09-14T11:50:41.844Z,21.80
2018-09-14T11:53:10.236Z,21.40
2018-09-14T11:55:38.823Z,21.40
2018-09-14T11:58:07.253Z,21.60
2018-09-14T12:00:35.778Z,21.80
2018-09-14T12:03:04.181Z,22.00
2018-09-14T12:05:32.691Z,22.30
2018-09-14T12:08:01.098Z,22.60
2018-09-14T12:10:29.555Z,22.90
2018-09-14T12:12:57.975Z,23.00
2018-09-14T12:15:26.385Z,23.00
2018-09-14T12:17:54.821Z,22.50
2018-09-14T12:20:23.361Z,22.30
2018-09-14T12:22:51.745Z,22.40
2018-09-14T12:25:26.815Z,22.20
2018-09-14T12:27:55.229Z,22.10
2018-09-14T12:30:23.907Z,22.10
2018-09-14T12:32:52.382Z,22.00
2018-09-14T12:35:20.836Z,21.90
2018-09-14T12:37:49.264Z,21.60
2018-09-14T12:40:17.800Z,21.40
2018-09-14T12:42:46.210Z,21.40
2018-09-14T12:45:14.721Z,21.40
2018-09-14T12:47:43.560Z,21.60
2018-09-14T12:50:11.994Z,22.00
2018-09-14T12:52:40.442Z,22.80
2018-09-14T12:55:08.877Z,23.10
2018-09-14T12:57:37.437Z,23.20
2018-09-14T13:00:05.980Z,23.00
2018-09-14T13:02:34.342Z,23.10
2018-09-14T13:05:02.775Z,22.90
2018-09-14T13:07:31.223Z,22.60
2018-09-14T13:09:59.747Z,22.40
2018-09-14T13:12:28.175Z,22.40
2018-09-14T13:14:56.637Z,22.30
2018-09-14T13:17:25.020Z,22.40
2018-09-14T13:19:53.463Z,22.10
2018-09-14T13:22:21.871Z,22.10
2018-09-14T13:24:50.384Z,21.80
2018-09-14T13:27:18.834Z,21.60
2018-09-14T13:29:48.313Z,21.70
2018-09-14T13:32:16.759Z,21.40
2018-09-14T13:34:45.239Z,21.50
2018-09-14T13:37:13.626Z,21.70
2018-09-14T13:39:42.019Z,21.70
2018-09-14T13:42:10.651Z,21.90
2018-09-14T13:44:39.045Z,22.00
2018-09-14T13:47:07.545Z,22.00
2018-09-14T13:49:35.984Z,22.00
2018-09-14T13:52:04.488Z,22.00
2018-09-14T13:54:32.851Z,22.00
2018-09-14T13:57:01.286Z,22.10
2018-09-14T13:59:29.729Z,22.10
2018-09-14T14:01:58.135Z,22.20
2018-09-14T14:04:26.635Z,22.20
2018-09-14T14:06:55.154Z,21.90
2018-09-14T14:09:23.580Z,21.80
2018-09-14T14:11:52.038Z,21.90
2018-09-14T14:14:20.448Z,22.20
2018-09-14T14:16:48.886Z,22.60
2018-09-14T14:19:17.366Z,23.40
2018-09-14T14:21:45.862Z,24.10
2018-09-14T14:24:14.257Z,24.40
2018-09-14T14:26:42.669Z,24.50
2018-09-14T14:29:11.059Z,24.40
2018-09-14T14:31:39.607Z,24.70
2018-09-14T14:34:08.077Z,24.80
2018-09-14T14:36:36.526Z,25.00
2018-09-14T14:39:06.710Z,25.40
2018-09-14T14:41:35.171Z,25.60
2018-09-14T14:44:03.571Z,26.00
2018-09-14T14:46:31.972Z,26.20
2018-09-14T14:49:00.368Z,26.20
2018-09-14T14:51:28.771Z,26.00
2018-09-14T14:53:57.160Z,25.60
2018-09-14T14:56:25.610Z,24.70
2018-09-14T14:58:54.022Z,23.80
2018-09-14T15:01:22.568Z,23.70
2018-09-14T15:03:50.924Z,23.40
2018-09-14T15:06:19.398Z,23.40
2018-09-14T15:08:47.757Z,23.20
2018-09-14T15:11:16.151Z,23.10
2018-09-14T15:13:44.578Z,23.00
2018-09-14T15:16:12.961Z,23.00
2018-09-14T15:18:41.349Z,22.90
2018-09-14T15:21:09.724Z,22.90
2018-09-14T15:23:38.260Z,22.70
2018-09-14T15:26:07.496Z,22.40
2018-09-14T15:28:35.965Z,22.40
2018-09-14T15:31:04.348Z,22.50
2018-09-14T15:33:32.745Z,22.30
2018-09-14T15:36:01.179Z,22.20
2018-09-14T15:38:29.572Z,22.00
2018-09-14T15:40:58.038Z,21.90
2018-09-14T15:43:26.431Z,21.80
2018-09-14T15:45:54.796Z,22.00
2018-09-14T15:48:23.354Z,22.20
2018-09-14T15:50:51.762Z,22.40
2018-09-14T15:53:20.199Z,22.50
2018-09-14T15:55:48.576Z,22.50
2018-09-14T15:58:17.042Z,22.10
2018-09-14T16:00:45.472Z,21.70
2018-09-14T16:03:13.879Z,21.60
2018-09-14T16:05:42.301Z,21.30
2018-09-14T16:08:10.762Z,21.20
2018-09-14T16:10:39.285Z,21.10
2018-09-14T16:13:07.764Z,21.00
2018-09-14T16:15:36.168Z,21.00
2018-09-14T16:18:04.630Z,20.90
2018-09-14T16:20:33.024Z,20.80
2018-09-14T16:23:01.434Z,20.80
2018-09-14T16:25:29.885Z,20.80
2018-09-14T16:27:58.723Z,20.80
2018-09-14T16:30:27.393Z,20.80
2018-09-14T16:32:56.078Z,20.80
2018-09-14T16:35:24.590Z,20.80
2018-09-14T16:37:53.191Z,20.70
2018-09-14T16:40:21.733Z,20.70
2018-09-14T16:42:50.476Z,20.70
2018-09-14T16:45:18.974Z,20.60
2018-09-14T16:47:47.385Z,20.70
2018-09-14T16:50:15.806Z,20.70
2018-09-14T16:52:44.176Z,20.70
2018-09-14T16:55:12.547Z,20.80
2018-09-14T16:57:41.130Z,20.70
2018-09-14T17:00:09.748Z,20.60
2018-09-14T17:02:38.136Z,20.50
2018-09-14T17:05:06.555Z,20.40
2018-09-14T17:07:34.946Z,20.40
2018-09-14T17:10:03.325Z,20.30
2018-09-14T17:12:31.690Z,20.20
2018-09-14T17:15:00.099Z,20.10
2018-09-14T17:17:28.510Z,20.00
2018-09-14T17:19:56.903Z,20.00
2018-09-14T17:22:25.365Z,19.90
2018-09-14T17:24:53.797Z,19.90
2018-09-14T17:27:22.199Z,19.90
2018-09-14T17:29:50.588Z,19.80
2018-09-14T17:32:19.083Z,19.80
2018-09-14T17:34:47.463Z,19.80
2018-09-14T17:37:15.836Z,19.70
2018-09-14T17:39:44.263Z,19.70
2018-09-14T17:42:12.719Z,19.70
2018-09-14T17:44:41.253Z,19.60
2018-09-14T17:47:09.580Z,19.50
2018-09-14T17:49:38.104Z,19.40
2018-09-14T17:52:06.582Z,19.40
2018-09-14T17:54:35.004Z,19.30
2018-09-14T17:57:03.411Z,19.30
2018-09-14T17:59:31.931Z,19.20
2018-09-14T18:02:00.383Z,19.20
2018-09-14T18:04:28.864Z,19.10
2018-09-14T18:06:57.239Z,19.10
2018-09-14T18:09:25.650Z,19.10
2018-09-14T18:11:54.014Z,19.00
2018-09-14T18:14:22.402Z,18.90
2018-09-14T18:16:50.786Z,18.90
2018-09-14T18:19:19.222Z,18.80
2018-09-14T18:21:47.600Z,18.70
2018-09-14T18:24:16.047Z,18.70
2018-09-14T18:26:44.380Z,18.60
2018-09-14T18:29:12.779Z,18.60
2018-09-14T18:31:41.313Z,18.60
2018-09-14T18:34:10.225Z,18.60
2018-09-14T18:36:39.127Z,18.50
2018-09-14T18:39:09.279Z,18.50
2018-09-14T18:41:37.828Z,18.50
2018-09-14T18:44:06.694Z,18.50
2018-09-14T18:46:35.908Z,18.40
2018-09-14T18:49:04.863Z,18.40
2018-09-14T18:51:33.813Z,18.40
2018-09-14T18:54:02.980Z,18.40
2018-09-14T18:56:31.762Z,18.30
2018-09-14T18:59:00.206Z,18.30
2018-09-14T19:01:28.661Z,18.20
2018-09-14T19:03:57.133Z,18.20
2018-09-14T19:06:25.633Z,18.20
2018-09-14T19:08:54.006Z,18.10
2018-09-14T19:11:22.709Z,18.00
2018-09-14T19:13:51.277Z,18.00
2018-09-14T19:16:19.814Z,17.90
2018-09-14T19:18:48.234Z,17.80
2018-09-14T19:21:16.767Z,17.70
2018-09-14T19:23:45.185Z,17.70
2018-09-14T19:26:13.518Z,17.70
2018-09-14T19:28:41.959Z,17.60
2018-09-14T19:31:10.364Z,17.60
2018-09-14T19:33:38.898Z,17.60
2018-09-14T19:36:07.366Z,17.50
2018-09-14T19:38:36.271Z,17.40
2018-09-14T19:41:04.708Z,17.30
2018-09-14T19:43:33.089Z,17.30
2018-09-14T19:46:01.454Z,17.20
2018-09-14T19:48:29.875Z,17.10
2018-09-14T19:50:58.361Z,17.00
2018-09-14T19:53:26.721Z,17.00
2018-09-14T19:55:55.133Z,16.90
2018-09-14T19:58:23.569Z,16.80
2018-09-14T20:00:51.995Z,16.80
2018-09-14T20:03:20.419Z,16.70
2018-09-14T20:05:48.860Z,16.60
2018-09-14T20:08:17.284Z,16.50
2018-09-14T20:10:45.715Z,16.50
2018-09-14T20:13:15.275Z,16.50
2018-09-14T20:15:43.682Z,16.50
2018-09-14T20:18:12.079Z,16.50
2018-09-14T20:20:40.484Z,16.40
2018-09-14T20:23:08.883Z,16.40
2018-09-14T20:25:37.287Z,16.50
2018-09-14T20:28:05.734Z,16.40
2018-09-14T20:30:34.201Z,16.50
2018-09-14T20:33:02.555Z,16.40
2018-09-14T20:35:30.965Z,16.40
2018-09-14T20:37:59.351Z,16.40
2018-09-14T20:40:27.775Z,16.40
2018-09-14T20:42:56.178Z,16.40
2018-09-14T20:45:24.665Z,16.30
2018-09-14T20:47:53.015Z,16.20
2018-09-14T20:50:21.381Z,16.30
2018-09-14T20:52:49.759Z,16.20
2018-09-14T20:55:18.175Z,16.30
2018-09-14T20:57:46.582Z,16.30
2018-09-14T21:00:17.899Z,16.30
2018-09-14T21:02:46.982Z,16.30
2018-09-14T21:05:15.377Z,16.30
2018-09-14T21:07:43.751Z,16.40
2018-09-14T21:10:12.206Z,16.40
2018-09-14T21:12:40.736Z,16.40
2018-09-14T21:15:09.148Z,16.30
2018-09-14T21:17:37.638Z,16.20
2018-09-14T21:20:06.258Z,16.20
2018-09-14T21:22:35.346Z,16.10
2018-09-14T21:25:03.777Z,16.10
2018-09-14T21:27:32.225Z,16.10
2018-09-14T21:30:00.618Z,16.10
2018-09-14T21:32:29.018Z,16.00
2018-09-14T21:34:57.468Z,16.00
2018-09-14T21:37:25.888Z,16.00
2018-09-14T21:39:54.270Z,16.00
2018-09-14T21:42:22.651Z,16.00
2018-09-14T21:44:51.015Z,16.00
2018-09-14T21:47:19.463Z,16.10
2018-09-14T21:49:47.860Z,16.10
2018-09-14T21:52:16.258Z,16.00
2018-09-14T21:54:44.812Z,16.00
2018-09-14T21:57:13.219Z,16.00
2018-09-14T21:59:41.646Z,16.00
2018-09-14T22:02:10.113Z,16.00
2018-09-14T22:04:39.550Z,16.00
2018-09-14T22:07:08.346Z,16.00
2018-09-14T22:09:36.724Z,16.10
2018-09-14T22:12:05.157Z,16.00
2018-09-14T22:14:33.549Z,16.00
2018-09-14T22:17:01.999Z,16.00
2018-09-14T22:19:30.459Z,16.00
2018-09-14T22:21:58.920Z,16.00
2018-09-14T22:24:27.267Z,16.00
2018-09-14T22:26:55.685Z,16.00
2018-09-14T22:29:24.049Z,16.00
2018-09-14T22:31:52.439Z,16.00
2018-09-14T22:34:20.849Z,16.00
2018-09-14T22:36:49.226Z,16.10
2018-09-14T22:39:17.682Z,16.10
2018-09-14T22:41:46.079Z,16.10
2018-09-14T22:44:14.519Z,16.10
2018-09-14T22:46:42.984Z,16.10
2018-09-14T22:49:11.399Z,16.10
2018-09-14T22:51:39.813Z,16.00
2018-09-14T22:54:08.196Z,16.00
2018-09-14T22:56:36.622Z,16.00
2018-09-14T22:59:04.971Z,16.00
2018-09-14T23:01:33.357Z,16.00
2018-09-14T23:04:01.783Z,16.00
2018-09-14T23:06:30.230Z,16.10
2018-09-14T23:08:58.583Z,16.10
2018-09-14T23:11:26.965Z,16.10
2018-09-14T23:13:55.398Z,16.10
2018-09-14T23:16:23.844Z,16.10
2018-09-14T23:18:52.360Z,16.10
2018-09-14T23:21:20.743Z,16.00
2018-09-14T23:23:49.299Z,16.10
2018-09-14T23:26:20.167Z,16.10
2018-09-14T23:28:48.620Z,16.10
2018-09-14T23:31:16.996Z,16.10
2018-09-14T23:33:45.352Z,16.00
2018-09-14T23:36:13.710Z,16.00
2018-09-14T23:38:42.064Z,16.00
2018-09-14T23:41:10.406Z,16.00
2018-09-14T23:43:38.730Z,16.00
2018-09-14T23:46:07.136Z,15.90
2018-09-14T23:48:35.508Z,15.90
2018-09-14T23:51:03.888Z,15.80
2018-09-14T23:53:32.245Z,15.80
2018-09-14T23:56:00.618Z,15.80
2018-09-14T23:58:28.975Z,15.70
